createdAt,value
2023-05-19T00:01:17.989Z,48702.94
2023-05-19T00:04:03.077Z,48675.50
2023-05-19T00:06:32.410Z,48699.03
2023-05-19T00:09:01.943Z,48679.44
2023-05-19T00:11:29.537Z,48695.09
2023-05-19T00:13:58.124Z,48700.97
2023-05-19T00:16:27.267Z,48699.03
2023-05-19T00:18:54.540Z,48695.09
2023-05-19T00:21:23.252Z,48687.28
2023-05-19T00:23:50.023Z,48669.63
2023-05-19T00:26:19.314Z,48687.28
2023-05-19T00:28:45.952Z,48683.34
2023-05-19T00:31:12.659Z,48681.41
2023-05-19T00:33:39.317Z,48648.09
2023-05-19T00:36:06.159Z,48665.72
2023-05-19T00:38:34.664Z,48695.09
2023-05-19T00:41:02.347Z,48648.09
2023-05-19T00:43:32.173Z,48677.47
2023-05-19T00:45:58.624Z,48714.69
2023-05-19T00:48:27.409Z,48695.09
2023-05-19T00:50:56.082Z,48653.97
2023-05-19T00:53:24.479Z,48677.47
2023-05-19T00:55:52.692Z,48691.19
2023-05-19T00:58:19.685Z,48663.75
2023-05-19T01:00:46.255Z,48652.00
2023-05-19T01:03:13.299Z,48673.56
2023-05-19T01:06:01.713Z,48695.09
2023-05-19T01:08:29.586Z,48663.75
2023-05-19T01:10:56.314Z,48675.50
2023-05-19T01:13:23.320Z,48702.94
2023-05-19T01:16:01.849Z,48681.41
2023-05-19T01:18:35.936Z,48702.94
2023-05-19T01:21:36.514Z,48673.56
2023-05-19T01:24:49.674Z,48671.59
2023-05-19T01:27:40.002Z,48691.19
2023-05-19T01:30:31.376Z,48675.50
2023-05-19T01:33:04.713Z,48679.44
2023-05-19T01:35:36.993Z,48687.28
2023-05-19T01:38:07.909Z,48671.59
2023-05-19T01:40:39.585Z,48687.28
2023-05-19T01:43:09.560Z,48642.22
2023-05-19T01:45:37.009Z,48667.69
2023-05-19T01:48:05.285Z,48665.72
2023-05-19T01:50:34.895Z,48675.50
2023-05-19T01:53:01.893Z,48659.84
2023-05-19T01:55:28.485Z,48659.84
2023-05-19T01:58:11.383Z,48648.09
2023-05-19T02:00:56.627Z,48652.00
2023-05-19T02:03:38.929Z,48706.84
2023-05-19T02:06:39.784Z,48683.34
2023-05-19T02:09:57.169Z,48673.56
2023-05-19T02:12:36.002Z,48663.75
2023-05-19T02:15:10.887Z,48679.44
2023-05-19T02:17:47.726Z,48667.69
2023-05-19T02:20:15.585Z,48655.94
2023-05-19T02:22:42.656Z,48636.34
2023-05-19T02:25:10.284Z,48640.25
2023-05-19T02:27:37.847Z,48663.75
2023-05-19T02:30:06.110Z,48683.34
2023-05-19T02:32:33.208Z,48667.69
2023-05-19T02:35:01.042Z,48667.69
2023-05-19T02:37:29.478Z,48640.25
2023-05-19T02:39:58.170Z,48663.75
2023-05-19T02:42:24.922Z,48665.72
2023-05-19T02:44:52.647Z,48657.88
2023-05-19T02:47:19.379Z,48636.34
2023-05-19T02:49:46.048Z,48657.88
2023-05-19T02:52:12.576Z,48659.84
2023-05-19T02:54:39.302Z,48677.47
2023-05-19T02:57:08.548Z,48685.31
2023-05-19T02:59:35.036Z,48675.50
2023-05-19T03:02:02.669Z,48659.84
2023-05-19T03:04:32.250Z,48648.09
2023-05-19T03:07:01.691Z,48648.09
2023-05-19T03:09:28.251Z,48679.44
2023-05-19T03:11:54.755Z,48655.94
2023-05-19T03:14:24.339Z,48667.69
2023-05-19T03:16:51.092Z,48652.00
2023-05-19T03:19:18.172Z,48655.94
2023-05-19T03:21:45.104Z,48661.81
2023-05-19T03:24:11.929Z,48650.06
2023-05-19T03:26:38.392Z,48657.88
2023-05-19T03:29:04.858Z,48642.22
2023-05-19T03:31:31.595Z,48657.88
2023-05-19T03:33:59.527Z,48667.69
2023-05-19T03:36:31.879Z,48659.84
2023-05-19T03:38:59.406Z,48675.50
2023-05-19T03:41:26.243Z,48663.75
2023-05-19T03:43:53.003Z,48671.59
2023-05-19T03:46:19.901Z,48632.41
2023-05-19T03:48:46.628Z,48675.50
2023-05-19T03:51:13.542Z,48663.75
2023-05-19T03:53:41.187Z,48659.84
2023-05-19T03:56:08.413Z,48636.34
2023-05-19T03:58:37.643Z,48675.50
2023-05-19T04:01:04.390Z,48652.00
2023-05-19T04:03:31.377Z,48655.94
2023-05-19T04:05:58.360Z,48652.00
2023-05-19T04:08:25.113Z,48655.94
2023-05-19T04:10:51.888Z,48665.72
2023-05-19T04:13:18.379Z,48644.16
2023-05-19T04:15:45.244Z,48677.47
2023-05-19T04:18:11.772Z,48667.69
2023-05-19T04:20:38.256Z,48652.00
2023-05-19T04:23:04.689Z,48644.16
2023-05-19T04:25:31.207Z,48653.97
2023-05-19T04:27:58.177Z,48653.97
2023-05-19T04:30:25.178Z,48663.75
2023-05-19T04:32:51.822Z,48636.34
2023-05-19T04:35:20.241Z,48667.69
2023-05-19T04:37:46.801Z,48644.16
2023-05-19T04:40:13.432Z,48640.25
2023-05-19T04:42:41.768Z,48663.75
2023-05-19T04:45:09.328Z,48675.50
2023-05-19T04:47:38.780Z,48642.22
2023-05-19T04:50:05.814Z,48648.09
2023-05-19T04:52:34.622Z,48655.94
2023-05-19T04:55:01.168Z,48669.63
2023-05-19T04:57:27.595Z,48655.94
2023-05-19T04:59:59.818Z,48667.69
2023-05-19T05:02:29.451Z,48632.41
2023-05-19T05:04:56.635Z,48636.34
2023-05-19T05:07:23.604Z,48640.25
2023-05-19T05:09:50.097Z,48663.75
2023-05-19T05:12:18.640Z,48653.97
2023-05-19T05:14:45.787Z,48648.09
2023-05-19T05:17:13.683Z,48675.50
2023-05-19T05:19:41.041Z,48620.66
2023-05-19T05:22:08.041Z,48652.00
2023-05-19T05:24:34.970Z,48667.69
2023-05-19T05:27:02.030Z,48657.88
2023-05-19T05:29:28.523Z,48687.28
2023-05-19T05:31:56.953Z,48650.06
2023-05-19T05:34:23.803Z,48657.88
2023-05-19T05:36:50.454Z,48667.69
2023-05-19T05:39:17.006Z,48695.09
2023-05-19T05:41:45.915Z,48663.75
2023-05-19T05:44:12.591Z,48655.94
2023-05-19T05:46:39.606Z,48675.50
2023-05-19T05:49:10.755Z,48665.72
2023-05-19T05:51:37.716Z,48671.59
2023-05-19T05:54:06.950Z,48652.00
2023-05-19T05:56:34.311Z,48653.97
2023-05-19T05:59:02.078Z,48652.00
2023-05-19T06:01:30.466Z,48640.25
2023-05-19T06:03:57.235Z,48659.84
2023-05-19T06:06:23.729Z,48679.44
2023-05-19T06:08:50.235Z,48657.88
2023-05-19T06:11:16.924Z,48675.50
2023-05-19T06:13:43.682Z,48659.84
2023-05-19T06:16:10.575Z,48665.72
2023-05-19T06:18:37.242Z,48663.75
2023-05-19T06:21:03.886Z,48655.94
2023-05-19T06:23:31.444Z,48671.59
2023-05-19T06:26:03.342Z,48646.13
2023-05-19T06:28:30.114Z,48675.50
2023-05-19T06:30:56.592Z,48663.75
2023-05-19T06:33:23.083Z,48657.88
2023-05-19T06:35:49.556Z,48650.06
2023-05-19T06:38:16.418Z,48671.59
2023-05-19T06:40:44.269Z,48669.63
2023-05-19T06:43:11.052Z,48675.50
2023-05-19T06:45:37.574Z,48673.56
2023-05-19T06:48:05.767Z,48663.75
2023-05-19T06:50:32.516Z,48673.56
2023-05-19T06:52:59.351Z,48655.94
2023-05-19T06:55:25.878Z,48665.72
2023-05-19T06:57:52.669Z,48685.31
2023-05-19T07:00:22.978Z,48675.50
2023-05-19T07:02:50.597Z,48675.50
2023-05-19T07:05:17.240Z,48687.28
2023-05-19T07:07:43.994Z,48687.28
2023-05-19T07:10:10.820Z,48679.44
2023-05-19T07:12:37.237Z,48675.50
2023-05-19T07:15:04.311Z,48702.94
2023-05-19T07:17:30.987Z,48691.19
2023-05-19T07:19:57.602Z,48671.59
2023-05-19T07:22:24.243Z,48710.78
2023-05-19T07:24:51.169Z,48691.19
2023-05-19T07:27:17.982Z,48667.69
2023-05-19T07:29:44.481Z,48683.34
2023-05-19T07:32:11.255Z,48677.47
2023-05-19T07:34:37.757Z,48683.34
2023-05-19T07:37:06.267Z,48681.41
2023-05-19T07:39:33.953Z,48702.94
2023-05-19T07:42:00.802Z,48695.09
2023-05-19T07:44:28.215Z,48655.94
2023-05-19T07:46:56.395Z,48691.19
2023-05-19T07:49:23.005Z,48710.78
2023-05-19T07:51:51.917Z,48675.50
2023-05-19T07:54:18.552Z,48691.19
2023-05-19T07:56:45.396Z,48699.03
2023-05-19T07:59:12.292Z,48665.72
2023-05-19T08:01:38.754Z,48710.78
2023-05-19T08:04:05.607Z,48706.84
2023-05-19T08:06:33.553Z,48671.59
2023-05-19T08:09:00.062Z,48693.16
2023-05-19T08:11:26.752Z,48706.84
2023-05-19T08:13:53.271Z,48675.50
2023-05-19T08:16:19.810Z,48714.69
2023-05-19T08:18:46.454Z,48673.56
2023-05-19T08:21:12.998Z,48683.34
2023-05-19T08:23:39.459Z,48695.09
2023-05-19T08:26:06.523Z,48671.59
2023-05-19T08:28:33.377Z,48679.44
2023-05-19T08:31:00.693Z,48704.91
2023-05-19T08:33:27.552Z,48687.28
2023-05-19T08:35:57.644Z,48702.94
2023-05-19T08:38:26.437Z,48699.03
2023-05-19T08:40:53.133Z,48708.81
2023-05-19T08:43:19.915Z,48706.84
2023-05-19T08:45:48.268Z,48683.34
2023-05-19T08:48:18.575Z,48695.09
2023-05-19T08:50:57.167Z,48706.84
2023-05-19T08:53:33.932Z,48712.72
2023-05-19T08:56:37.035Z,48683.34
2023-05-19T08:59:06.445Z,48691.19
2023-05-19T09:01:33.411Z,48714.69
2023-05-19T09:04:00.038Z,48716.66
2023-05-19T09:06:27.115Z,48730.38
2023-05-19T09:08:53.795Z,48722.53
2023-05-19T09:11:20.421Z,48722.53
2023-05-19T09:13:47.252Z,48702.94
2023-05-19T09:16:15.982Z,48714.69
2023-05-19T09:18:55.258Z,48712.72
2023-05-19T09:21:31.290Z,48691.19
2023-05-19T09:24:06.085Z,48726.44
2023-05-19T09:26:42.900Z,48706.84
2023-05-19T09:29:17.443Z,48702.94
2023-05-19T09:31:56.031Z,48691.19
2023-05-19T09:34:25.874Z,48716.66
2023-05-19T09:36:54.215Z,48702.94
2023-05-19T09:39:25.171Z,48699.03
2023-05-19T09:41:58.901Z,48702.94
2023-05-19T09:44:31.079Z,48699.03
2023-05-19T09:46:58.920Z,48706.84
2023-05-19T09:49:30.330Z,48738.19
2023-05-19T09:51:58.030Z,48706.84
2023-05-19T09:54:26.049Z,48724.50
2023-05-19T09:57:04.821Z,48726.44
2023-05-19T09:59:33.433Z,48710.78
2023-05-19T10:02:01.656Z,48738.19
2023-05-19T10:04:30.145Z,48699.03
2023-05-19T10:07:01.561Z,48714.69
2023-05-19T10:09:29.704Z,48712.72
2023-05-19T10:11:57.643Z,48726.44
2023-05-19T10:14:29.693Z,48734.28
2023-05-19T10:16:59.821Z,48720.56
2023-05-19T10:19:28.650Z,48706.84
2023-05-19T10:21:56.464Z,48728.41
2023-05-19T10:24:23.117Z,48704.91
2023-05-19T10:27:03.763Z,48704.91
2023-05-19T10:29:34.760Z,48687.28
2023-05-19T10:32:09.108Z,48722.53
2023-05-19T10:34:57.372Z,48726.44
2023-05-19T10:37:57.854Z,48730.38
2023-05-19T10:40:41.234Z,48714.69
2023-05-19T10:43:12.064Z,48724.50
2023-05-19T10:45:53.656Z,48700.97
2023-05-19T10:48:21.630Z,48734.28
2023-05-19T10:50:48.378Z,48687.28
2023-05-19T10:53:22.290Z,48746.03
2023-05-19T10:55:53.535Z,48746.03
2023-05-19T10:58:45.321Z,48730.38
2023-05-19T11:01:15.095Z,48706.84
2023-05-19T11:03:50.281Z,48746.03
2023-05-19T11:06:22.170Z,48746.03
2023-05-19T11:08:57.200Z,48726.44
2023-05-19T11:11:24.348Z,48718.59
2023-05-19T11:13:52.654Z,48710.78
2023-05-19T11:16:21.464Z,48722.53
2023-05-19T11:18:50.571Z,48746.03
2023-05-19T11:21:20.007Z,48730.38
2023-05-19T11:23:46.645Z,48730.38
2023-05-19T11:26:13.298Z,48730.38
2023-05-19T11:28:40.784Z,48714.69
2023-05-19T11:31:10.393Z,48726.44
2023-05-19T11:33:37.861Z,48746.03
2023-05-19T11:36:04.994Z,48722.53
2023-05-19T11:38:32.768Z,48730.38
2023-05-19T11:41:01.027Z,48722.53
2023-05-19T11:43:28.940Z,48714.69
2023-05-19T11:45:56.153Z,48740.16
2023-05-19T11:48:23.001Z,48732.31
2023-05-19T11:50:50.157Z,48718.59
2023-05-19T11:53:20.079Z,48734.28
2023-05-19T11:55:48.754Z,48730.38
2023-05-19T11:58:16.633Z,48742.13
2023-05-19T12:00:46.365Z,48736.25
2023-05-19T12:03:13.269Z,48836.16
2023-05-19T12:05:45.990Z,48746.03
2023-05-19T12:08:13.573Z,48746.03
2023-05-19T12:10:43.207Z,48722.53
2023-05-19T12:13:10.541Z,48742.13
2023-05-19T12:15:37.868Z,48734.28
2023-05-19T12:18:04.397Z,48722.53
2023-05-19T12:20:35.962Z,48722.53
2023-05-19T12:23:03.561Z,48708.81
2023-05-19T12:25:31.238Z,48730.38
2023-05-19T12:28:04.760Z,48746.03
2023-05-19T12:30:34.810Z,48714.69
2023-05-19T12:33:02.962Z,48753.88
2023-05-19T12:35:33.370Z,48738.19
2023-05-19T12:38:05.769Z,48746.03
2023-05-19T12:40:34.796Z,48771.50
2023-05-19T12:43:01.867Z,48734.28
2023-05-19T12:45:29.052Z,48755.84
2023-05-19T12:47:56.957Z,48757.78
2023-05-19T12:50:31.152Z,48753.88
2023-05-19T12:53:00.063Z,48761.72
2023-05-19T12:55:26.812Z,48742.13
2023-05-19T12:57:58.104Z,48761.72
2023-05-19T13:00:28.102Z,48714.69
2023-05-19T13:03:08.058Z,48773.47
2023-05-19T13:05:38.846Z,48757.78
2023-05-19T13:08:12.640Z,48757.78
2023-05-19T13:10:40.652Z,48753.88
2023-05-19T13:13:09.149Z,48742.13
2023-05-19T13:15:39.358Z,48730.38
2023-05-19T13:18:09.186Z,48757.78
2023-05-19T13:20:44.401Z,48761.72
2023-05-19T13:23:13.509Z,48769.53
2023-05-19T13:25:41.648Z,48728.41
2023-05-19T13:28:09.097Z,48738.19
2023-05-19T13:30:38.587Z,48742.13
2023-05-19T13:33:05.791Z,48742.13
2023-05-19T13:35:37.976Z,48726.44
2023-05-19T13:38:10.433Z,48753.88
2023-05-19T13:40:40.139Z,48773.47
2023-05-19T13:43:07.917Z,48753.88
2023-05-19T13:45:34.585Z,48763.66
2023-05-19T13:48:01.276Z,48742.13
2023-05-19T13:50:28.048Z,48746.03
2023-05-19T13:52:54.804Z,48742.13
2023-05-19T13:55:22.548Z,48771.50
2023-05-19T13:57:49.301Z,48726.44
2023-05-19T14:00:16.311Z,48767.59
2023-05-19T14:02:43.054Z,48765.63
2023-05-19T14:05:12.781Z,48765.63
2023-05-19T14:07:39.422Z,48767.59
2023-05-19T14:10:06.946Z,48761.72
2023-05-19T14:12:44.894Z,48777.38
2023-05-19T14:15:19.337Z,48759.75
2023-05-19T14:17:46.192Z,48789.13
2023-05-19T14:20:13.058Z,48773.47
2023-05-19T14:22:40.887Z,48761.72
2023-05-19T14:25:08.132Z,48796.97
2023-05-19T14:27:34.669Z,48744.06
2023-05-19T14:30:01.178Z,48734.28
2023-05-19T14:32:30.562Z,48746.03
2023-05-19T14:34:57.220Z,48738.19
2023-05-19T14:37:24.389Z,48785.22
2023-05-19T14:39:50.925Z,48753.88
2023-05-19T14:42:17.625Z,48765.63
2023-05-19T14:44:44.137Z,48767.59
2023-05-19T14:47:11.377Z,48767.59
2023-05-19T14:49:38.281Z,48761.72
2023-05-19T14:52:05.096Z,48746.03
2023-05-19T14:54:31.568Z,48742.13
2023-05-19T14:56:59.057Z,48740.16
2023-05-19T14:59:25.918Z,48742.13
2023-05-19T15:01:52.445Z,48773.47
2023-05-19T15:04:18.934Z,48769.53
2023-05-19T15:06:48.228Z,48744.06
2023-05-19T15:09:19.249Z,48757.78
2023-05-19T15:11:45.798Z,48746.03
2023-05-19T15:14:12.538Z,48761.72
2023-05-19T15:16:39.313Z,48773.47
2023-05-19T15:19:06.042Z,48773.47
2023-05-19T15:21:32.556Z,48742.13
2023-05-19T15:23:59.287Z,48781.31
2023-05-19T15:26:29.060Z,48777.38
2023-05-19T15:28:56.169Z,48734.28
2023-05-19T15:31:22.983Z,48767.59
2023-05-19T15:33:49.554Z,48732.31
2023-05-19T15:36:17.655Z,48726.44
2023-05-19T15:38:44.831Z,48746.03
2023-05-19T15:41:11.694Z,48777.38
2023-05-19T15:43:40.849Z,48769.53
2023-05-19T15:46:07.464Z,48746.03
2023-05-19T15:48:34.442Z,48763.66
2023-05-19T15:51:01.336Z,48718.59
2023-05-19T15:53:28.101Z,48742.13
2023-05-19T15:55:54.618Z,48759.75
2023-05-19T15:58:21.175Z,48777.38
2023-05-19T16:00:48.837Z,48742.13
2023-05-19T16:03:15.569Z,48730.38
2023-05-19T16:05:42.177Z,48736.25
2023-05-19T16:08:08.972Z,48757.78
2023-05-19T16:10:35.747Z,48746.03
2023-05-19T16:13:02.582Z,48718.59
2023-05-19T16:15:29.307Z,48742.13
2023-05-19T16:17:55.817Z,48738.19
2023-05-19T16:20:26.741Z,48746.03
2023-05-19T16:22:54.057Z,48769.53
2023-05-19T16:25:21.001Z,48765.63
2023-05-19T16:27:49.252Z,48742.13
2023-05-19T16:30:16.585Z,48765.63
2023-05-19T16:32:43.193Z,48738.19
2023-05-19T16:35:10.109Z,48757.78
2023-05-19T16:37:37.923Z,48738.19
2023-05-19T16:40:05.234Z,48746.03
2023-05-19T16:42:32.349Z,48753.88
2023-05-19T16:44:59.095Z,48746.03
2023-05-19T16:47:25.562Z,48710.78
2023-05-19T16:49:52.809Z,48742.13
2023-05-19T16:52:20.105Z,48726.44
2023-05-19T16:54:46.612Z,48742.13
2023-05-19T16:57:14.907Z,48759.75
2023-05-19T16:59:42.301Z,48722.53
2023-05-19T17:02:09.193Z,48746.03
2023-05-19T17:04:35.995Z,48722.53
2023-05-19T17:07:02.735Z,48761.72
2023-05-19T17:09:29.230Z,48738.19
2023-05-19T17:11:56.001Z,48702.94
2023-05-19T17:14:22.492Z,48734.28
2023-05-19T17:16:49.362Z,48736.25
2023-05-19T17:19:16.266Z,48710.78
2023-05-19T17:21:43.178Z,48726.44
2023-05-19T17:24:09.776Z,48746.03
2023-05-19T17:26:36.324Z,48734.28
2023-05-19T17:29:02.808Z,48740.16
2023-05-19T17:31:29.304Z,48765.63
2023-05-19T17:33:55.854Z,48777.38
2023-05-19T17:36:22.418Z,48753.88
2023-05-19T17:38:48.908Z,48730.38
2023-05-19T17:41:15.780Z,48722.53
2023-05-19T17:43:42.787Z,48718.59
2023-05-19T17:46:09.813Z,48746.03
2023-05-19T17:48:36.420Z,48746.03
2023-05-19T17:51:07.693Z,48695.09
2023-05-19T17:53:34.549Z,48726.44
2023-05-19T17:56:03.968Z,48738.19
2023-05-19T17:58:32.025Z,48722.53
2023-05-19T18:00:59.797Z,48746.03
2023-05-19T18:03:27.226Z,48718.59
2023-05-19T18:05:54.069Z,48738.19
2023-05-19T18:08:21.083Z,48726.44
2023-05-19T18:10:49.687Z,48746.03
2023-05-19T18:13:16.368Z,48702.94
2023-05-19T18:15:43.165Z,48712.72
2023-05-19T18:18:10.929Z,48742.13
2023-05-19T18:20:44.456Z,48726.44
2023-05-19T18:23:11.552Z,48753.88
2023-05-19T18:25:39.284Z,48753.88
2023-05-19T18:28:06.051Z,48736.25
2023-05-19T18:30:34.183Z,48687.28
2023-05-19T18:33:03.592Z,48726.44
2023-05-19T18:35:30.415Z,48722.53
2023-05-19T18:37:57.407Z,48706.84
2023-05-19T18:40:24.618Z,48718.59
2023-05-19T18:42:51.157Z,48726.44
2023-05-19T18:45:21.103Z,48716.66
2023-05-19T18:47:47.658Z,48730.38
2023-05-19T18:50:14.557Z,48738.19
2023-05-19T18:52:41.091Z,48702.94
2023-05-19T18:55:08.021Z,48738.19
2023-05-19T18:57:34.499Z,48722.53
2023-05-19T19:00:01.789Z,48720.56
2023-05-19T19:02:28.348Z,48738.19
2023-05-19T19:04:55.109Z,48710.78
2023-05-19T19:07:21.692Z,48728.41
2023-05-19T19:09:48.422Z,48730.38
2023-05-19T19:12:15.034Z,48728.41
2023-05-19T19:14:41.714Z,48722.53
2023-05-19T19:17:08.520Z,48753.88
2023-05-19T19:19:35.948Z,48732.31
2023-05-19T19:22:03.314Z,48746.03
2023-05-19T19:24:31.348Z,48730.38
2023-05-19T19:26:57.820Z,48742.13
2023-05-19T19:29:24.384Z,48718.59
2023-05-19T19:31:51.272Z,48728.41
2023-05-19T19:34:21.657Z,48697.06
2023-05-19T19:36:48.430Z,48726.44
2023-05-19T19:39:15.199Z,48744.06
2023-05-19T19:41:41.865Z,48722.53
2023-05-19T19:44:08.335Z,48730.38
2023-05-19T19:46:35.152Z,48728.41
2023-05-19T19:49:02.522Z,48700.97
2023-05-19T19:51:29.356Z,48738.19
2023-05-19T19:53:56.641Z,48734.28
2023-05-19T19:56:24.912Z,48704.91
2023-05-19T19:58:53.071Z,48722.53
2023-05-19T20:01:39.515Z,48732.31
2023-05-19T20:04:06.194Z,48718.59
2023-05-19T20:06:33.626Z,48695.09
2023-05-19T20:09:00.462Z,48720.56
2023-05-19T20:11:27.971Z,48730.38
2023-05-19T20:13:54.954Z,48742.13
2023-05-19T20:16:21.582Z,48765.63
2023-05-19T20:18:48.101Z,48753.88
2023-05-19T20:21:14.661Z,48710.78
2023-05-19T20:23:41.416Z,48726.44
2023-05-19T20:26:12.030Z,48722.53
2023-05-19T20:28:39.757Z,48740.16
2023-05-19T20:31:07.209Z,48734.28
2023-05-19T20:33:33.889Z,48746.03
2023-05-19T20:36:00.560Z,48734.28
2023-05-19T20:38:27.104Z,48716.66
2023-05-19T20:40:54.855Z,48726.44
2023-05-19T20:43:21.524Z,48718.59
2023-05-19T20:45:48.546Z,48746.03
2023-05-19T20:48:16.039Z,48722.53
2023-05-19T20:50:42.683Z,48751.91
2023-05-19T20:53:10.880Z,48718.59
2023-05-19T20:55:38.783Z,48730.38
2023-05-19T20:58:05.725Z,48744.06
2023-05-19T21:00:32.639Z,48742.13
2023-05-19T21:02:59.811Z,48738.19
2023-05-19T21:05:30.067Z,48726.44
2023-05-19T21:07:56.523Z,48738.19
2023-05-19T21:10:23.108Z,48755.84
2023-05-19T21:12:49.632Z,48730.38
2023-05-19T21:15:16.316Z,48742.13
2023-05-19T21:17:43.118Z,48702.94
2023-05-19T21:20:10.205Z,48769.53
2023-05-19T21:22:36.942Z,48722.53
2023-05-19T21:25:04.464Z,48708.81
2023-05-19T21:27:32.917Z,48714.69
2023-05-19T21:30:00.018Z,48726.44
2023-05-19T21:32:27.313Z,48714.69
2023-05-19T21:34:53.842Z,48738.19
2023-05-19T21:37:21.574Z,48734.28
2023-05-19T21:39:48.806Z,48714.69
2023-05-19T21:42:15.571Z,48736.25
2023-05-19T21:44:42.338Z,48730.38
2023-05-19T21:47:08.808Z,48728.41
2023-05-19T21:49:35.682Z,48738.19
2023-05-19T21:52:02.418Z,48757.78
2023-05-19T21:54:29.020Z,48742.13
2023-05-19T21:56:55.509Z,48744.06
2023-05-19T21:59:24.634Z,48767.59
2023-05-19T22:01:51.213Z,48742.13
2023-05-19T22:04:18.807Z,48730.38
2023-05-19T22:06:46.524Z,48763.66
2023-05-19T22:09:13.505Z,48775.41
2023-05-19T22:11:40.104Z,48763.66
2023-05-19T22:14:06.968Z,48736.25
2023-05-19T22:16:35.857Z,48753.88
2023-05-19T22:19:02.485Z,48728.41
2023-05-19T22:21:30.040Z,48726.44
2023-05-19T22:23:59.322Z,48726.44
2023-05-19T22:26:26.025Z,48755.84
2023-05-19T22:28:53.277Z,48738.19
2023-05-19T22:31:19.733Z,48746.03
2023-05-19T22:33:46.135Z,48759.75
2023-05-19T22:36:13.680Z,48746.03
2023-05-19T22:38:40.827Z,48765.63
2023-05-19T22:41:07.315Z,48730.38
2023-05-19T22:43:34.138Z,48738.19
2023-05-19T22:46:00.899Z,48765.63
2023-05-19T22:48:27.367Z,48734.28
2023-05-19T22:50:53.886Z,48773.47
2023-05-19T22:53:20.742Z,48777.38
2023-05-19T22:55:47.756Z,48769.53
2023-05-19T22:58:14.194Z,48738.19
2023-05-19T23:00:40.664Z,48738.19
2023-05-19T23:03:07.124Z,48746.03
2023-05-19T23:05:34.143Z,48775.41
2023-05-19T23:08:01.308Z,48769.53
2023-05-19T23:10:27.822Z,48791.09
2023-05-19T23:12:54.358Z,48730.38
2023-05-19T23:15:21.081Z,48804.81
2023-05-19T23:17:47.555Z,48746.03
2023-05-19T23:20:14.369Z,48789.13
2023-05-19T23:22:40.980Z,48795.00
2023-05-19T23:25:09.521Z,48773.47
2023-05-19T23:27:36.421Z,48798.94
2023-05-19T23:30:03.550Z,48808.72
2023-05-19T23:32:30.200Z,48796.97
2023-05-19T23:34:56.936Z,48818.53
2023-05-19T23:37:23.425Z,48820.47
2023-05-19T23:39:50.582Z,48793.06
2023-05-19T23:42:18.140Z,48767.59
2023-05-19T23:44:44.632Z,48777.38
2023-05-19T23:47:11.162Z,48798.94
2023-05-19T23:49:40.807Z,48800.88
2023-05-19T23:52:07.361Z,48802.84
2023-05-19T23:54:36.070Z,48816.56
2023-05-19T23:57:03.116Z,48791.09
2023-05-19T23:59:29.583Z,48804.81
